sensor_id;sensor_type;location;lat;lon;timestamp;temperature;humidity
23633;DHT22;11993;48.748;9.166;2023-08-21T00:02:20;25.80;67.20
23633;DHT22;11993;48.748;9.166;2023-08-21T00:04:46;25.80;67.00
23633;DHT22;11993;48.748;9.166;2023-08-21T00:07:12;25.80;66.90
23633;DHT22;11993;48.748;9.166;2023-08-21T00:09:37;25.70;67.20
23633;DHT22;11993;48.748;9.166;2023-08-21T00:12:04;25.80;66.80
23633;DHT22;11993;48.748;9.166;2023-08-21T00:14:29;25.80;66.60
23633;DHT22;11993;48.748;9.166;2023-08-21T00:16:55;25.90;66.60
23633;DHT22;11993;48.748;9.166;2023-08-21T00:19:20;25.90;66.50
23633;DHT22;11993;48.748;9.166;2023-08-21T00:21:46;25.90;66.30
23633;DHT22;11993;48.748;9.166;2023-08-21T00:24:12;25.80;66.80
23633;DHT22;11993;48.748;9.166;2023-08-21T00:26:37;25.80;66.60
23633;DHT22;11993;48.748;9.166;2023-08-21T00:29:03;25.80;66.90
23633;DHT22;11993;48.748;9.166;2023-08-21T00:31:29;25.70;67.00
23633;DHT22;11993;48.748;9.166;2023-08-21T00:33:54;25.60;67.40
23633;DHT22;11993;48.748;9.166;2023-08-21T00:36:20;25.70;67.00
23633;DHT22;11993;48.748;9.166;2023-08-21T00:38:45;25.70;67.10
23633;DHT22;11993;48.748;9.166;2023-08-21T00:41:11;25.70;67.20
23633;DHT22;11993;48.748;9.166;2023-08-21T00:43:37;25.60;67.20
23633;DHT22;11993;48.748;9.166;2023-08-21T00:46:03;25.50;67.70
23633;DHT22;11993;48.748;9.166;2023-08-21T00:48:28;25.50;67.80
23633;DHT22;11993;48.748;9.166;2023-08-21T00:50:54;25.30;68.40
23633;DHT22;11993;48.748;9.166;2023-08-21T00:53:21;25.30;68.70
23633;DHT22;11993;48.748;9.166;2023-08-21T00:55:46;25.30;68.60
23633;DHT22;11993;48.748;9.166;2023-08-21T00:58:12;25.30;68.70
23633;DHT22;11993;48.748;9.166;2023-08-21T01:00:38;25.20;68.80
23633;DHT22;11993;48.748;9.166;2023-08-21T01:03:04;25.40;68.30
23633;DHT22;11993;48.748;9.166;2023-08-21T01:05:30;25.40;68.20
23633;DHT22;11993;48.748;9.166;2023-08-21T01:11:06;25.40;67.60
23633;DHT22;11993;48.748;9.166;2023-08-21T01:13:56;25.50;67.90
23633;DHT22;11993;48.748;9.166;2023-08-21T01:16:24;25.40;68.00
23633;DHT22;11993;48.748;9.166;2023-08-21T01:18:51;25.40;68.00
23633;DHT22;11993;48.748;9.166;2023-08-21T01:21:18;25.40;68.20
23633;DHT22;11993;48.748;9.166;2023-08-21T01:23:44;25.10;68.90
23633;DHT22;11993;48.748;9.166;2023-08-21T01:26:10;25.30;68.50
23633;DHT22;11993;48.748;9.166;2023-08-21T01:28:35;25.30;68.40
23633;DHT22;11993;48.748;9.166;2023-08-21T01:33:41;25.10;69.10
23633;DHT22;11993;48.748;9.166;2023-08-21T01:36:08;25.00;69.50
23633;DHT22;11993;48.748;9.166;2023-08-21T01:38:34;24.90;69.70
23633;DHT22;11993;48.748;9.166;2023-08-21T01:41:01;24.90;70.00
23633;DHT22;11993;48.748;9.166;2023-08-21T01:43:27;24.90;69.70
23633;DHT22;11993;48.748;9.166;2023-08-21T01:45:52;25.00;69.30
23633;DHT22;11993;48.748;9.166;2023-08-21T01:48:18;25.00;69.20
23633;DHT22;11993;48.748;9.166;2023-08-21T01:50:43;24.90;69.40
23633;DHT22;11993;48.748;9.166;2023-08-21T01:53:09;24.90;69.60
23633;DHT22;11993;48.748;9.166;2023-08-21T01:55:34;24.90;69.40
23633;DHT22;11993;48.748;9.166;2023-08-21T01:58:00;25.00;69.30
23633;DHT22;11993;48.748;9.166;2023-08-21T02:00:25;25.00;69.40
23633;DHT22;11993;48.748;9.166;2023-08-21T02:02:51;25.10;68.90
23633;DHT22;11993;48.748;9.166;2023-08-21T02:05:17;25.20;68.50
23633;DHT22;11993;48.748;9.166;2023-08-21T02:07:42;25.20;68.20
23633;DHT22;11993;48.748;9.166;2023-08-21T02:10:08;25.20;68.00
23633;DHT22;11993;48.748;9.166;2023-08-21T02:12:34;25.20;68.20
23633;DHT22;11993;48.748;9.166;2023-08-21T02:14:59;25.20;68.10
23633;DHT22;11993;48.748;9.166;2023-08-21T02:17:28;25.20;67.90
23633;DHT22;11993;48.748;9.166;2023-08-21T02:19:53;25.10;68.00
23633;DHT22;11993;48.748;9.166;2023-08-21T02:22:19;25.10;68.20
23633;DHT22;11993;48.748;9.166;2023-08-21T02:24:44;25.10;68.40
23633;DHT22;11993;48.748;9.166;2023-08-21T02:27:10;25.10;68.30
23633;DHT22;11993;48.748;9.166;2023-08-21T02:29:35;25.10;68.30
23633;DHT22;11993;48.748;9.166;2023-08-21T02:32:01;25.10;68.30
23633;DHT22;11993;48.748;9.166;2023-08-21T02:34:26;25.20;68.40
23633;DHT22;11993;48.748;9.166;2023-08-21T02:36:52;25.10;68.40
23633;DHT22;11993;48.748;9.166;2023-08-21T02:39:17;25.10;68.40
23633;DHT22;11993;48.748;9.166;2023-08-21T02:41:43;25.10;68.80
23633;DHT22;11993;48.748;9.166;2023-08-21T02:44:08;25.00;68.80
23633;DHT22;11993;48.748;9.166;2023-08-21T02:46:34;25.00;68.70
23633;DHT22;11993;48.748;9.166;2023-08-21T02:49:01;25.10;68.40
23633;DHT22;11993;48.748;9.166;2023-08-21T02:51:27;25.10;68.60
23633;DHT22;11993;48.748;9.166;2023-08-21T02:53:53;25.20;68.50
23633;DHT22;11993;48.748;9.166;2023-08-21T02:56:19;25.10;68.70
23633;DHT22;11993;48.748;9.166;2023-08-21T02:58:44;24.80;69.70
23633;DHT22;11993;48.748;9.166;2023-08-21T03:01:10;24.70;69.70
23633;DHT22;11993;48.748;9.166;2023-08-21T03:03:35;24.60;70.00
23633;DHT22;11993;48.748;9.166;2023-08-21T03:06:01;24.70;70.10
23633;DHT22;11993;48.748;9.166;2023-08-21T03:08:27;24.80;69.40
23633;DHT22;11993;48.748;9.166;2023-08-21T03:10:53;24.80;69.50
23633;DHT22;11993;48.748;9.166;2023-08-21T03:13:18;24.70;69.60
23633;DHT22;11993;48.748;9.166;2023-08-21T03:15:44;24.70;69.70
23633;DHT22;11993;48.748;9.166;2023-08-21T03:18:10;24.60;69.90
23633;DHT22;11993;48.748;9.166;2023-08-21T03:20:36;24.60;70.30
23633;DHT22;11993;48.748;9.166;2023-08-21T03:23:01;24.40;70.60
23633;DHT22;11993;48.748;9.166;2023-08-21T03:25:27;24.40;70.60
23633;DHT22;11993;48.748;9.166;2023-08-21T03:27:53;24.40;70.70
23633;DHT22;11993;48.748;9.166;2023-08-21T03:30:19;24.30;71.20
23633;DHT22;11993;48.748;9.166;2023-08-21T03:32:44;24.20;71.30
23633;DHT22;11993;48.748;9.166;2023-08-21T03:35:10;24.20;71.20
23633;DHT22;11993;48.748;9.166;2023-08-21T03:37:36;24.10;71.70
23633;DHT22;11993;48.748;9.166;2023-08-21T03:40:02;24.10;71.60
23633;DHT22;11993;48.748;9.166;2023-08-21T03:42:29;24.10;71.60
23633;DHT22;11993;48.748;9.166;2023-08-21T03:44:54;24.20;71.50
23633;DHT22;11993;48.748;9.166;2023-08-21T03:47:20;24.20;71.50
23633;DHT22;11993;48.748;9.166;2023-08-21T03:49:45;24.10;71.70
23633;DHT22;11993;48.748;9.166;2023-08-21T03:52:13;24.20;71.30
23633;DHT22;11993;48.748;9.166;2023-08-21T03:54:39;24.10;71.60
23633;DHT22;11993;48.748;9.166;2023-08-21T03:57:05;24.10;71.60
23633;DHT22;11993;48.748;9.166;2023-08-21T03:59:30;24.10;71.40
23633;DHT22;11993;48.748;9.166;2023-08-21T04:01:56;24.10;71.70
23633;DHT22;11993;48.748;9.166;2023-08-21T04:04:21;24.20;71.20
23633;DHT22;11993;48.748;9.166;2023-08-21T04:06:47;24.20;71.10
23633;DHT22;11993;48.748;9.166;2023-08-21T04:09:12;24.20;71.10
23633;DHT22;11993;48.748;9.166;2023-08-21T04:11:38;24.10;71.50
23633;DHT22;11993;48.748;9.166;2023-08-21T04:14:04;24.20;71.50
23633;DHT22;11993;48.748;9.166;2023-08-21T04:16:29;24.10;71.90
23633;DHT22;11993;48.748;9.166;2023-08-21T04:18:56;24.10;71.90
23633;DHT22;11993;48.748;9.166;2023-08-21T04:21:22;24.10;71.60
23633;DHT22;11993;48.748;9.166;2023-08-21T04:23:48;24.20;71.40
23633;DHT22;11993;48.748;9.166;2023-08-21T04:26:13;24.10;71.70
23633;DHT22;11993;48.748;9.166;2023-08-21T04:28:39;24.10;71.80
23633;DHT22;11993;48.748;9.166;2023-08-21T04:31:06;24.10;71.70
23633;DHT22;11993;48.748;9.166;2023-08-21T04:33:32;24.30;71.20
23633;DHT22;11993;48.748;9.166;2023-08-21T04:35:57;24.30;71.20
23633;DHT22;11993;48.748;9.166;2023-08-21T04:38:23;24.20;71.20
23633;DHT22;11993;48.748;9.166;2023-08-21T04:40:49;24.10;71.60
23633;DHT22;11993;48.748;9.166;2023-08-21T04:43:14;24.10;71.60
23633;DHT22;11993;48.748;9.166;2023-08-21T04:45:50;24.20;71.60
23633;DHT22;11993;48.748;9.166;2023-08-21T04:48:18;24.30;71.30
23633;DHT22;11993;48.748;9.166;2023-08-21T04:50:45;24.30;71.30
23633;DHT22;11993;48.748;9.166;2023-08-21T04:53:11;24.10;71.80
23633;DHT22;11993;48.748;9.166;2023-08-21T04:55:37;24.10;72.10
23633;DHT22;11993;48.748;9.166;2023-08-21T04:58:06;24.10;72.20
23633;DHT22;11993;48.748;9.166;2023-08-21T05:00:31;23.90;72.60
23633;DHT22;11993;48.748;9.166;2023-08-21T05:02:57;24.00;72.30
23633;DHT22;11993;48.748;9.166;2023-08-21T05:05:23;24.10;72.50
23633;DHT22;11993;48.748;9.166;2023-08-21T05:07:48;24.10;72.30
23633;DHT22;11993;48.748;9.166;2023-08-21T05:10:14;24.20;72.10
23633;DHT22;11993;48.748;9.166;2023-08-21T05:12:49;24.20;71.80
23633;DHT22;11993;48.748;9.166;2023-08-21T05:15:35;24.30;71.80
23633;DHT22;11993;48.748;9.166;2023-08-21T05:18:00;24.20;71.90
23633;DHT22;11993;48.748;9.166;2023-08-21T05:20:26;24.30;71.50
23633;DHT22;11993;48.748;9.166;2023-08-21T05:22:51;24.50;71.30
23633;DHT22;11993;48.748;9.166;2023-08-21T05:25:17;24.60;71.00
23633;DHT22;11993;48.748;9.166;2023-08-21T05:27:42;24.60;71.00
23633;DHT22;11993;48.748;9.166;2023-08-21T05:30:08;24.70;70.50
23633;DHT22;11993;48.748;9.166;2023-08-21T05:32:36;24.80;70.50
23633;DHT22;11993;48.748;9.166;2023-08-21T05:35:01;24.90;70.10
23633;DHT22;11993;48.748;9.166;2023-08-21T05:37:27;25.00;69.50
23633;DHT22;11993;48.748;9.166;2023-08-21T05:39:52;24.80;70.00
23633;DHT22;11993;48.748;9.166;2023-08-21T05:42:18;24.80;69.60
23633;DHT22;11993;48.748;9.166;2023-08-21T05:44:43;25.00;69.20
23633;DHT22;11993;48.748;9.166;2023-08-21T05:47:09;25.10;68.90
23633;DHT22;11993;48.748;9.166;2023-08-21T05:49:34;25.20;68.50
23633;DHT22;11993;48.748;9.166;2023-08-21T05:52:00;25.20;68.70
23633;DHT22;11993;48.748;9.166;2023-08-21T05:54:26;25.30;68.60
23633;DHT22;11993;48.748;9.166;2023-08-21T05:56:52;25.50;67.60
23633;DHT22;11993;48.748;9.166;2023-08-21T05:59:29;25.60;67.30
23633;DHT22;11993;48.748;9.166;2023-08-21T06:01:55;25.60;67.80
23633;DHT22;11993;48.748;9.166;2023-08-21T06:04:20;25.60;67.30
23633;DHT22;11993;48.748;9.166;2023-08-21T06:06:46;25.90;67.10
23633;DHT22;11993;48.748;9.166;2023-08-21T06:09:11;26.10;66.10
23633;DHT22;11993;48.748;9.166;2023-08-21T06:11:37;26.20;66.10
23633;DHT22;11993;48.748;9.166;2023-08-21T06:14:04;26.30;65.50
23633;DHT22;11993;48.748;9.166;2023-08-21T06:16:29;26.40;64.60
23633;DHT22;11993;48.748;9.166;2023-08-21T06:18:55;26.50;64.30
23633;DHT22;11993;48.748;9.166;2023-08-21T06:21:20;26.50;64.70
23633;DHT22;11993;48.748;9.166;2023-08-21T06:23:46;26.60;64.70
23633;DHT22;11993;48.748;9.166;2023-08-21T06:26:11;26.80;63.60
23633;DHT22;11993;48.748;9.166;2023-08-21T06:28:37;26.60;63.80
23633;DHT22;11993;48.748;9.166;2023-08-21T06:31:02;26.60;63.80
23633;DHT22;11993;48.748;9.166;2023-08-21T06:33:29;26.60;64.30
23633;DHT22;11993;48.748;9.166;2023-08-21T06:35:54;26.60;64.60
23633;DHT22;11993;48.748;9.166;2023-08-21T06:38:20;26.70;64.10
23633;DHT22;11993;48.748;9.166;2023-08-21T06:40:45;27.00;63.20
23633;DHT22;11993;48.748;9.166;2023-08-21T06:43:11;27.20;62.50
23633;DHT22;11993;48.748;9.166;2023-08-21T06:45:37;27.30;61.90
23633;DHT22;11993;48.748;9.166;2023-08-21T06:48:02;27.30;62.10
23633;DHT22;11993;48.748;9.166;2023-08-21T06:50:28;27.40;61.70
23633;DHT22;11993;48.748;9.166;2023-08-21T06:52:54;27.20;61.90
23633;DHT22;11993;48.748;9.166;2023-08-21T06:55:19;27.20;61.90
23633;DHT22;11993;48.748;9.166;2023-08-21T06:57:45;27.20;62.20
23633;DHT22;11993;48.748;9.166;2023-08-21T07:00:11;27.10;62.00
23633;DHT22;11993;48.748;9.166;2023-08-21T07:02:36;27.30;62.40
23633;DHT22;11993;48.748;9.166;2023-08-21T07:05:02;27.60;61.80
23633;DHT22;11993;48.748;9.166;2023-08-21T07:07:28;27.90;61.00
23633;DHT22;11993;48.748;9.166;2023-08-21T07:09:54;28.00;61.00
23633;DHT22;11993;48.748;9.166;2023-08-21T07:12:19;28.30;60.20
23633;DHT22;11993;48.748;9.166;2023-08-21T07:14:45;28.40;59.90
23633;DHT22;11993;48.748;9.166;2023-08-21T07:17:10;28.60;59.30
23633;DHT22;11993;48.748;9.166;2023-08-21T07:19:36;28.50;59.80
23633;DHT22;11993;48.748;9.166;2023-08-21T07:22:01;28.70;59.80
23633;DHT22;11993;48.748;9.166;2023-08-21T07:24:27;28.60;58.90
23633;DHT22;11993;48.748;9.166;2023-08-21T07:26:52;28.60;59.00
23633;DHT22;11993;48.748;9.166;2023-08-21T07:29:18;28.60;59.40
23633;DHT22;11993;48.748;9.166;2023-08-21T07:31:44;28.90;58.70
23633;DHT22;11993;48.748;9.166;2023-08-21T07:34:09;29.30;58.10
23633;DHT22;11993;48.748;9.166;2023-08-21T07:36:35;29.10;58.10
23633;DHT22;11993;48.748;9.166;2023-08-21T07:39:00;29.20;57.90
23633;DHT22;11993;48.748;9.166;2023-08-21T07:41:26;29.50;57.00
23633;DHT22;11993;48.748;9.166;2023-08-21T07:43:51;29.50;57.10
23633;DHT22;11993;48.748;9.166;2023-08-21T07:46:17;29.60;56.30
23633;DHT22;11993;48.748;9.166;2023-08-21T07:48:44;29.70;56.30
23633;DHT22;11993;48.748;9.166;2023-08-21T07:51:10;29.70;56.10
23633;DHT22;11993;48.748;9.166;2023-08-21T07:53:35;30.00;55.90
23633;DHT22;11993;48.748;9.166;2023-08-21T07:56:02;30.00;55.60
23633;DHT22;11993;48.748;9.166;2023-08-21T07:58:29;30.00;56.70
23633;DHT22;11993;48.748;9.166;2023-08-21T08:00:54;30.30;56.30
23633;DHT22;11993;48.748;9.166;2023-08-21T08:03:21;30.40;55.50
23633;DHT22;11993;48.748;9.166;2023-08-21T08:05:46;30.60;54.80
23633;DHT22;11993;48.748;9.166;2023-08-21T08:08:11;30.70;53.80
23633;DHT22;11993;48.748;9.166;2023-08-21T08:10:40;30.60;53.50
23633;DHT22;11993;48.748;9.166;2023-08-21T08:13:07;30.90;53.40
23633;DHT22;11993;48.748;9.166;2023-08-21T08:15:33;30.70;53.20
23633;DHT22;11993;48.748;9.166;2023-08-21T08:18:00;31.00;52.80
23633;DHT22;11993;48.748;9.166;2023-08-21T08:20:26;31.20;53.50
23633;DHT22;11993;48.748;9.166;2023-08-21T08:22:51;31.40;52.40
23633;DHT22;11993;48.748;9.166;2023-08-21T08:25:17;31.50;52.60
23633;DHT22;11993;48.748;9.166;2023-08-21T08:27:43;31.80;51.40
23633;DHT22;11993;48.748;9.166;2023-08-21T08:30:09;31.90;51.00
23633;DHT22;11993;48.748;9.166;2023-08-21T08:32:35;32.10;51.10
23633;DHT22;11993;48.748;9.166;2023-08-21T08:35:00;32.00;50.70
23633;DHT22;11993;48.748;9.166;2023-08-21T08:37:26;32.00;52.00
23633;DHT22;11993;48.748;9.166;2023-08-21T08:39:51;32.50;51.10
23633;DHT22;11993;48.748;9.166;2023-08-21T08:42:17;32.30;50.00
23633;DHT22;11993;48.748;9.166;2023-08-21T08:44:43;32.00;50.80
23633;DHT22;11993;48.748;9.166;2023-08-21T08:47:11;31.80;51.90
23633;DHT22;11993;48.748;9.166;2023-08-21T08:49:37;31.80;52.50
23633;DHT22;11993;48.748;9.166;2023-08-21T08:52:03;31.70;53.00
23633;DHT22;11993;48.748;9.166;2023-08-21T08:54:30;31.90;52.10
23633;DHT22;11993;48.748;9.166;2023-08-21T08:56:55;32.10;52.50
23633;DHT22;11993;48.748;9.166;2023-08-21T08:59:21;32.20;52.30
23633;DHT22;11993;48.748;9.166;2023-08-21T09:01:46;32.30;50.80
23633;DHT22;11993;48.748;9.166;2023-08-21T09:04:12;32.50;51.10
23633;DHT22;11993;48.748;9.166;2023-08-21T09:06:38;32.50;50.90
23633;DHT22;11993;48.748;9.166;2023-08-21T09:09:04;32.70;49.80
23633;DHT22;11993;48.748;9.166;2023-08-21T09:11:31;33.00;50.10
23633;DHT22;11993;48.748;9.166;2023-08-21T09:13:58;33.00;50.00
23633;DHT22;11993;48.748;9.166;2023-08-21T09:16:25;32.80;50.40
23633;DHT22;11993;48.748;9.166;2023-08-21T09:18:53;32.50;49.70
23633;DHT22;11993;48.748;9.166;2023-08-21T09:21:20;32.90;50.00
23633;DHT22;11993;48.748;9.166;2023-08-21T09:23:47;33.10;48.50
23633;DHT22;11993;48.748;9.166;2023-08-21T09:26:21;33.20;49.00
23633;DHT22;11993;48.748;9.166;2023-08-21T09:28:48;33.30;47.70
23633;DHT22;11993;48.748;9.166;2023-08-21T09:31:14;33.70;46.90
23633;DHT22;11993;48.748;9.166;2023-08-21T09:33:40;33.90;46.30
23633;DHT22;11993;48.748;9.166;2023-08-21T09:36:06;34.10;46.30
23633;DHT22;11993;48.748;9.166;2023-08-21T09:38:34;34.20;46.10
23633;DHT22;11993;48.748;9.166;2023-08-21T09:41:00;34.00;45.20
23633;DHT22;11993;48.748;9.166;2023-08-21T09:43:26;34.10;45.40
23633;DHT22;11993;48.748;9.166;2023-08-21T09:45:55;34.30;45.50
23633;DHT22;11993;48.748;9.166;2023-08-21T09:48:25;34.40;45.40
23633;DHT22;11993;48.748;9.166;2023-08-21T09:50:54;34.10;45.60
23633;DHT22;11993;48.748;9.166;2023-08-21T09:53:20;34.10;44.60
23633;DHT22;11993;48.748;9.166;2023-08-21T09:55:49;34.10;44.80
23633;DHT22;11993;48.748;9.166;2023-08-21T09:58:19;34.60;44.90
23633;DHT22;11993;48.748;9.166;2023-08-21T10:00:45;34.40;44.30
23633;DHT22;11993;48.748;9.166;2023-08-21T10:03:11;34.60;44.60
23633;DHT22;11993;48.748;9.166;2023-08-21T10:05:39;34.00;45.30
23633;DHT22;11993;48.748;9.166;2023-08-21T10:08:06;34.70;44.10
23633;DHT22;11993;48.748;9.166;2023-08-21T10:10:36;35.00;44.50
23633;DHT22;11993;48.748;9.166;2023-08-21T10:13:03;34.90;43.80
23633;DHT22;11993;48.748;9.166;2023-08-21T10:15:30;34.90;43.90
23633;DHT22;11993;48.748;9.166;2023-08-21T10:17:56;35.00;44.30
23633;DHT22;11993;48.748;9.166;2023-08-21T10:20:24;35.30;42.60
23633;DHT22;11993;48.748;9.166;2023-08-21T10:22:54;35.60;41.50
23633;DHT22;11993;48.748;9.166;2023-08-21T10:25:25;35.50;41.20
23633;DHT22;11993;48.748;9.166;2023-08-21T10:27:58;35.80;41.90
23633;DHT22;11993;48.748;9.166;2023-08-21T10:30:29;35.90;41.60
23633;DHT22;11993;48.748;9.166;2023-08-21T10:32:57;35.90;41.30
23633;DHT22;11993;48.748;9.166;2023-08-21T10:35:25;36.00;41.60
23633;DHT22;11993;48.748;9.166;2023-08-21T10:38:13;35.80;42.10
23633;DHT22;11993;48.748;9.166;2023-08-21T10:40:41;36.10;41.40
23633;DHT22;11993;48.748;9.166;2023-08-21T10:43:44;35.10;41.80
23633;DHT22;11993;48.748;9.166;2023-08-21T10:46:11;34.60;42.20
23633;DHT22;11993;48.748;9.166;2023-08-21T10:48:37;35.10;43.00
23633;DHT22;11993;48.748;9.166;2023-08-21T10:51:05;35.20;42.00
23633;DHT22;11993;48.748;9.166;2023-08-21T10:53:31;35.30;42.30
23633;DHT22;11993;48.748;9.166;2023-08-21T10:56:04;35.50;42.40
23633;DHT22;11993;48.748;9.166;2023-08-21T10:58:41;35.70;41.30
23633;DHT22;11993;48.748;9.166;2023-08-21T11:01:07;36.00;41.00
23633;DHT22;11993;48.748;9.166;2023-08-21T11:03:32;36.40;40.70
23633;DHT22;11993;48.748;9.166;2023-08-21T11:06:01;36.60;40.60
23633;DHT22;11993;48.748;9.166;2023-08-21T11:08:28;36.50;40.00
23633;DHT22;11993;48.748;9.166;2023-08-21T11:10:54;36.50;40.40
23633;DHT22;11993;48.748;9.166;2023-08-21T11:13:19;36.40;40.80
23633;DHT22;11993;48.748;9.166;2023-08-21T11:15:47;36.00;41.30
23633;DHT22;11993;48.748;9.166;2023-08-21T11:18:13;36.20;40.40
23633;DHT22;11993;48.748;9.166;2023-08-21T11:20:39;36.80;39.30
23633;DHT22;11993;48.748;9.166;2023-08-21T11:23:06;36.90;38.70
23633;DHT22;11993;48.748;9.166;2023-08-21T11:25:38;37.30;39.60
23633;DHT22;11993;48.748;9.166;2023-08-21T11:28:05;37.00;39.20
23633;DHT22;11993;48.748;9.166;2023-08-21T11:30:31;37.20;38.80
23633;DHT22;11993;48.748;9.166;2023-08-21T11:33:13;37.40;39.00
23633;DHT22;11993;48.748;9.166;2023-08-21T11:35:39;36.20;40.00
23633;DHT22;11993;48.748;9.166;2023-08-21T11:38:06;36.70;39.40
23633;DHT22;11993;48.748;9.166;2023-08-21T11:40:35;36.50;39.20
23633;DHT22;11993;48.748;9.166;2023-08-21T11:43:01;36.30;39.50
23633;DHT22;11993;48.748;9.166;2023-08-21T11:45:27;36.80;39.60
23633;DHT22;11993;48.748;9.166;2023-08-21T11:47:55;36.80;38.50
23633;DHT22;11993;48.748;9.166;2023-08-21T11:50:21;37.00;39.10
23633;DHT22;11993;48.748;9.166;2023-08-21T11:52:47;37.20;38.80
23633;DHT22;11993;48.748;9.166;2023-08-21T11:55:12;36.60;38.80
23633;DHT22;11993;48.748;9.166;2023-08-21T11:57:48;37.20;39.20
23633;DHT22;11993;48.748;9.166;2023-08-21T12:00:14;36.80;38.10
23633;DHT22;11993;48.748;9.166;2023-08-21T12:02:53;36.90;38.00
23633;DHT22;11993;48.748;9.166;2023-08-21T12:05:18;36.80;39.00
23633;DHT22;11993;48.748;9.166;2023-08-21T12:07:45;36.80;38.00
23633;DHT22;11993;48.748;9.166;2023-08-21T12:10:10;36.50;39.60
23633;DHT22;11993;48.748;9.166;2023-08-21T12:12:36;36.80;39.60
23633;DHT22;11993;48.748;9.166;2023-08-21T12:15:01;36.60;38.90
23633;DHT22;11993;48.748;9.166;2023-08-21T12:17:27;35.90;40.30
23633;DHT22;11993;48.748;9.166;2023-08-21T12:19:52;35.60;41.50
23633;DHT22;11993;48.748;9.166;2023-08-21T12:22:18;35.80;40.90
23633;DHT22;11993;48.748;9.166;2023-08-21T12:24:44;35.50;40.30
23633;DHT22;11993;48.748;9.166;2023-08-21T12:27:09;35.50;40.50
23633;DHT22;11993;48.748;9.166;2023-08-21T12:29:35;35.40;41.10
23633;DHT22;11993;48.748;9.166;2023-08-21T12:32:00;35.30;40.80
23633;DHT22;11993;48.748;9.166;2023-08-21T12:34:26;35.30;41.20
23633;DHT22;11993;48.748;9.166;2023-08-21T12:36:52;35.20;41.40
23633;DHT22;11993;48.748;9.166;2023-08-21T12:39:17;35.00;42.10
23633;DHT22;11993;48.748;9.166;2023-08-21T12:41:43;34.80;42.10
23633;DHT22;11993;48.748;9.166;2023-08-21T12:44:09;34.50;42.40
23633;DHT22;11993;48.748;9.166;2023-08-21T12:46:36;34.40;43.40
23633;DHT22;11993;48.748;9.166;2023-08-21T12:49:01;34.30;43.80
23633;DHT22;11993;48.748;9.166;2023-08-21T12:51:28;34.40;42.50
23633;DHT22;11993;48.748;9.166;2023-08-21T12:53:54;34.60;42.90
23633;DHT22;11993;48.748;9.166;2023-08-21T12:56:20;34.50;42.80
23633;DHT22;11993;48.748;9.166;2023-08-21T12:58:46;34.60;42.70
23633;DHT22;11993;48.748;9.166;2023-08-21T13:01:12;34.80;42.90
23633;DHT22;11993;48.748;9.166;2023-08-21T13:03:37;35.10;42.00
23633;DHT22;11993;48.748;9.166;2023-08-21T13:06:03;34.50;42.60
23633;DHT22;11993;48.748;9.166;2023-08-21T13:08:29;34.50;42.80
23633;DHT22;11993;48.748;9.166;2023-08-21T13:10:55;34.90;41.90
23633;DHT22;11993;48.748;9.166;2023-08-21T13:13:20;35.10;41.80
23633;DHT22;11993;48.748;9.166;2023-08-21T13:15:46;35.10;41.70
23633;DHT22;11993;48.748;9.166;2023-08-21T13:18:12;35.00;41.40
23633;DHT22;11993;48.748;9.166;2023-08-21T13:20:41;34.70;42.10
23633;DHT22;11993;48.748;9.166;2023-08-21T13:23:06;34.60;43.10
23633;DHT22;11993;48.748;9.166;2023-08-21T13:25:32;34.90;43.20
23633;DHT22;11993;48.748;9.166;2023-08-21T13:28:00;34.70;43.20
23633;DHT22;11993;48.748;9.166;2023-08-21T13:30:25;34.70;42.80
23633;DHT22;11993;48.748;9.166;2023-08-21T13:32:51;34.50;43.80
23633;DHT22;11993;48.748;9.166;2023-08-21T13:35:17;34.40;44.30
23633;DHT22;11993;48.748;9.166;2023-08-21T13:37:43;34.50;44.20
23633;DHT22;11993;48.748;9.166;2023-08-21T13:40:09;34.60;43.70
23633;DHT22;11993;48.748;9.166;2023-08-21T13:42:40;34.90;43.20
23633;DHT22;11993;48.748;9.166;2023-08-21T13:45:13;35.10;42.90
23633;DHT22;11993;48.748;9.166;2023-08-21T13:47:48;35.10;41.40
23633;DHT22;11993;48.748;9.166;2023-08-21T13:50:16;35.40;41.10
23633;DHT22;11993;48.748;9.166;2023-08-21T13:52:43;35.60;39.80
23633;DHT22;11993;48.748;9.166;2023-08-21T13:55:10;35.50;41.50
23633;DHT22;11993;48.748;9.166;2023-08-21T13:57:39;35.60;41.20
23633;DHT22;11993;48.748;9.166;2023-08-21T14:00:05;35.70;40.10
23633;DHT22;11993;48.748;9.166;2023-08-21T14:02:36;35.60;41.20
23633;DHT22;11993;48.748;9.166;2023-08-21T14:05:02;35.90;40.30
23633;DHT22;11993;48.748;9.166;2023-08-21T14:07:30;35.90;41.20
23633;DHT22;11993;48.748;9.166;2023-08-21T14:09:56;35.40;41.80
23633;DHT22;11993;48.748;9.166;2023-08-21T14:12:21;35.10;42.00
23633;DHT22;11993;48.748;9.166;2023-08-21T14:14:47;34.90;42.30
23633;DHT22;11993;48.748;9.166;2023-08-21T14:17:12;34.60;43.80
23633;DHT22;11993;48.748;9.166;2023-08-21T14:19:38;34.50;43.30
23633;DHT22;11993;48.748;9.166;2023-08-21T14:22:03;34.30;43.90
23633;DHT22;11993;48.748;9.166;2023-08-21T14:24:30;34.30;43.60
23633;DHT22;11993;48.748;9.166;2023-08-21T14:26:56;35.00;42.80
23633;DHT22;11993;48.748;9.166;2023-08-21T14:29:21;35.20;42.50
23633;DHT22;11993;48.748;9.166;2023-08-21T14:31:47;35.40;42.30
23633;DHT22;11993;48.748;9.166;2023-08-21T14:34:14;35.00;41.70
23633;DHT22;11993;48.748;9.166;2023-08-21T14:36:40;35.10;42.10
23633;DHT22;11993;48.748;9.166;2023-08-21T14:39:05;35.00;42.30
23633;DHT22;11993;48.748;9.166;2023-08-21T14:41:31;35.10;41.70
23633;DHT22;11993;48.748;9.166;2023-08-21T14:43:57;35.20;41.60
23633;DHT22;11993;48.748;9.166;2023-08-21T14:46:22;35.10;41.80
23633;DHT22;11993;48.748;9.166;2023-08-21T14:48:48;35.20;42.00
23633;DHT22;11993;48.748;9.166;2023-08-21T14:51:14;35.00;41.40
23633;DHT22;11993;48.748;9.166;2023-08-21T14:53:39;35.20;41.40
23633;DHT22;11993;48.748;9.166;2023-08-21T14:56:05;35.40;41.30
23633;DHT22;11993;48.748;9.166;2023-08-21T14:58:30;35.30;41.10
23633;DHT22;11993;48.748;9.166;2023-08-21T15:00:56;35.40;41.30
23633;DHT22;11993;48.748;9.166;2023-08-21T15:03:21;35.10;42.00
23633;DHT22;11993;48.748;9.166;2023-08-21T15:05:47;35.30;41.00
23633;DHT22;11993;48.748;9.166;2023-08-21T15:08:13;35.30;41.30
23633;DHT22;11993;48.748;9.166;2023-08-21T15:10:38;35.10;41.30
23633;DHT22;11993;48.748;9.166;2023-08-21T15:13:04;35.10;42.00
23633;DHT22;11993;48.748;9.166;2023-08-21T15:15:30;34.90;42.90
23633;DHT22;11993;48.748;9.166;2023-08-21T15:17:55;34.60;41.60
23633;DHT22;11993;48.748;9.166;2023-08-21T15:20:21;34.70;41.40
23633;DHT22;11993;48.748;9.166;2023-08-21T15:22:46;34.60;41.90
23633;DHT22;11993;48.748;9.166;2023-08-21T15:25:13;34.80;41.70
23633;DHT22;11993;48.748;9.166;2023-08-21T15:27:38;34.60;42.30
23633;DHT22;11993;48.748;9.166;2023-08-21T15:30:05;34.40;43.70
23633;DHT22;11993;48.748;9.166;2023-08-21T15:32:31;34.30;42.50